createdAt,value
2023-01-12T00:03:22.067Z,1.6
2023-01-12T00:13:03.388Z,1.6
2023-01-12T00:18:11.108Z,1.6
2023-01-12T00:23:33.608Z,1.6
2023-01-12T00:28:24.937Z,1.6
2023-01-12T00:33:47.489Z,1.6
2023-01-12T00:39:10.058Z,1.7
2023-01-12T00:44:37.609Z,1.6
2023-01-12T00:49:59.752Z,1.6
2023-01-12T00:55:23.182Z,1.5
2023-01-12T01:00:45.160Z,1.6
2023-01-12T01:06:08.432Z,1.5
2023-01-12T01:11:00.195Z,1.5
2023-01-12T01:15:52.234Z,1.5
2023-01-12T01:20:59.404Z,1.6
2023-01-12T01:26:06.517Z,1.5
2023-01-12T01:30:57.586Z,1.6
2023-01-12T01:35:48.097Z,1.5
2023-01-12T01:41:10.897Z,1.6
2023-01-12T01:46:33.528Z,1.6
2023-01-12T01:57:02.467Z,1.5
2023-01-12T02:07:35.770Z,1.5
2023-01-12T02:12:27.907Z,1.5
2023-01-12T02:17:50.425Z,1.6
2023-01-12T02:23:11.747Z,1.5
2023-01-12T02:28:34.716Z,1.6
2023-01-12T02:33:41.772Z,1.5
2023-01-12T02:39:03.550Z,1.5
2023-01-12T02:44:29.347Z,1.5
2023-01-12T02:49:50.522Z,1.5
2023-01-12T02:55:12.108Z,1.5
2023-01-12T03:00:35.442Z,1.5
2023-01-12T03:05:57.736Z,1.6
2023-01-12T03:11:19.703Z,1.6
2023-01-12T03:16:27.384Z,1.6
2023-01-12T03:21:49.228Z,1.6
2023-01-12T03:26:56.138Z,1.6
2023-01-12T03:32:19.240Z,1.6
2023-01-12T03:37:41.425Z,1.6
2023-01-12T03:43:04.167Z,1.6
2023-01-12T03:48:27.457Z,1.6
2023-01-12T03:53:48.859Z,1.7
2023-01-12T03:59:10.048Z,1.6
2023-01-12T04:04:34.123Z,1.6
2023-01-12T04:09:40.954Z,1.6
2023-01-12T04:14:48.237Z,1.7
2023-01-12T04:20:11.008Z,1.7
2023-01-12T04:25:32.762Z,1.7
2023-01-12T04:30:23.652Z,1.8
2023-01-12T04:35:46.861Z,1.8
2023-01-12T04:41:08.901Z,1.8
2023-01-12T04:46:33.467Z,1.8
2023-01-12T04:51:56.396Z,1.8
2023-01-12T04:57:19.158Z,1.8
2023-01-12T05:02:41.886Z,1.8
2023-01-12T05:08:07.428Z,1.8
2023-01-12T05:13:29.178Z,1.8
2023-01-12T05:18:51.679Z,1.8
2023-01-12T05:24:02.282Z,1.8
2023-01-12T05:29:23.975Z,1.8
2023-01-12T05:34:48.110Z,1.8
2023-01-12T05:39:55.788Z,1.8
2023-01-12T05:45:02.625Z,1.8
2023-01-12T05:50:23.657Z,1.8
2023-01-12T05:55:46.750Z,1.9
2023-01-12T06:00:53.667Z,1.9
2023-01-12T06:06:01.575Z,1.9
2023-01-12T06:11:10.621Z,1.9
2023-01-12T06:16:17.918Z,1.9
2023-01-12T06:21:40.693Z,1.9
2023-01-12T06:27:03.500Z,2
2023-01-12T06:32:25.432Z,1.9
2023-01-12T06:37:55.884Z,1.9
2023-01-12T06:43:18.986Z,2
2023-01-12T06:48:41.539Z,2.1
2023-01-12T06:54:03.568Z,2.1
2023-01-12T06:59:26.562Z,2.1
2023-01-12T07:04:49.580Z,2.3
2023-01-12T07:10:11.997Z,2.3
2023-01-12T07:15:37.891Z,2.3
2023-01-12T07:21:00.483Z,2.4
2023-01-12T07:26:25.655Z,2.4
2023-01-12T07:31:48.648Z,2.6
2023-01-12T07:37:10.681Z,2.6
2023-01-12T07:42:35.466Z,2.8
2023-01-12T07:47:58.838Z,2.9
2023-01-12T07:53:23.046Z,3
2023-01-12T07:58:45.269Z,2.9
2023-01-12T08:04:11.739Z,2.9
2023-01-12T08:09:33.990Z,3.1
2023-01-12T08:14:56.400Z,3.1
2023-01-12T08:20:19.652Z,2.9
2023-01-12T08:25:43.406Z,3.1
2023-01-12T08:31:06.127Z,3
2023-01-12T08:36:47.064Z,3.3
2023-01-12T08:42:10.398Z,3.4
2023-01-12T08:47:34.565Z,3.3
2023-01-12T08:53:01.452Z,3.4
2023-01-12T08:58:23.731Z,3.3
2023-01-12T09:03:32.068Z,3.3
2023-01-12T09:08:39.469Z,3.4
2023-01-12T09:14:02.558Z,3.2
2023-01-12T09:19:40.000Z,3.5
2023-01-12T09:25:05.312Z,3.4
2023-01-12T09:30:28.086Z,3.4
2023-01-12T09:36:00.765Z,3.6
2023-01-12T09:41:30.546Z,3.4
2023-01-12T09:46:37.891Z,3.4
2023-01-12T09:52:10.161Z,3.6
2023-01-12T09:57:45.055Z,3.7
2023-01-12T10:03:16.051Z,3.8
2023-01-12T10:08:49.386Z,3.9
2023-01-12T10:14:12.250Z,4
2023-01-12T10:19:38.116Z,3.8
2023-01-12T10:25:01.629Z,4
2023-01-12T10:30:24.667Z,4
2023-01-12T10:35:51.303Z,3.9
2023-01-12T10:41:13.612Z,4.3
2023-01-12T10:46:47.146Z,4.2
2023-01-12T10:52:09.613Z,4.1
2023-01-12T10:57:35.162Z,4.3
2023-01-12T11:03:00.019Z,4.3
2023-01-12T11:08:22.422Z,4.2
2023-01-12T11:13:47.223Z,4.9
2023-01-12T11:19:17.533Z,4.8
2023-01-12T11:24:40.502Z,4.4
2023-01-12T11:30:02.649Z,4.6
2023-01-12T11:35:11.043Z,4.7
2023-01-12T11:40:18.527Z,4.6
2023-01-12T11:45:24.956Z,4.8
2023-01-12T11:50:51.664Z,5
2023-01-12T11:56:16.339Z,4.9
2023-01-12T12:01:42.687Z,4.9
2023-01-12T12:07:06.183Z,5.1
2023-01-12T12:12:32.218Z,5
2023-01-12T12:17:41.712Z,4.8
2023-01-12T12:23:04.684Z,4.8
2023-01-12T12:28:28.872Z,4.6
2023-01-12T12:33:51.255Z,4.8
2023-01-12T12:38:58.835Z,4.7
2023-01-12T12:44:22.123Z,4.8
2023-01-12T12:49:44.396Z,4.8
2023-01-12T12:55:10.484Z,4.8
2023-01-12T13:00:33.892Z,4.9
2023-01-12T13:05:26.195Z,4.7
2023-01-12T13:10:18.436Z,4.7
2023-01-12T13:15:28.419Z,4.7
2023-01-12T13:20:59.537Z,4.6
2023-01-12T13:26:22.884Z,4.6
2023-01-12T13:31:47.784Z,4.6
2023-01-12T13:36:42.233Z,4.5
2023-01-12T13:42:08.263Z,4.6
2023-01-12T13:47:16.664Z,4.5
2023-01-12T13:52:39.511Z,4.5
2023-01-12T13:58:03.759Z,4.4
2023-01-12T14:03:27.173Z,4.4
2023-01-12T14:09:06.866Z,4.3
2023-01-12T14:14:29.931Z,4.2
2023-01-12T14:20:15.017Z,4.1
2023-01-12T14:25:37.622Z,3.9
2023-01-12T14:31:00.966Z,3.9
2023-01-12T14:36:23.706Z,3.8
2023-01-12T14:41:46.325Z,3.8
2023-01-12T14:47:09.809Z,3.8
2023-01-12T14:52:32.500Z,3.7
2023-01-12T14:57:55.058Z,3.6
2023-01-12T15:03:18.891Z,3.6
2023-01-12T15:08:50.507Z,3.4
2023-01-12T15:14:12.524Z,3.4
2023-01-12T15:19:35.367Z,3.3
2023-01-12T15:24:58.284Z,3.2
2023-01-12T15:30:32.807Z,3.1
2023-01-12T15:36:09.202Z,3.1
2023-01-12T15:41:31.696Z,3.1
2023-01-12T15:46:53.862Z,3
2023-01-12T15:52:16.923Z,3
2023-01-12T15:57:39.020Z,2.9
2023-01-12T16:02:46.849Z,2.9
2023-01-12T16:09:17.194Z,3
2023-01-12T16:14:39.451Z,2.9
2023-01-12T16:19:46.653Z,2.9
2023-01-12T16:25:10.273Z,2.9
2023-01-12T16:30:34.173Z,2.9
2023-01-12T16:35:57.696Z,2.9
2023-01-12T16:41:21.023Z,2.9
2023-01-12T16:51:38.179Z,2.9
2023-01-12T16:57:01.615Z,2.9
2023-01-12T17:02:30.699Z,2.9
2023-01-12T17:07:55.854Z,2.8
2023-01-12T17:12:54.093Z,2.8
2023-01-12T17:18:27.057Z,2.8
2023-01-12T17:23:37.539Z,2.8
2023-01-12T17:29:03.526Z,2.8
2023-01-12T17:33:58.433Z,2.9
2023-01-12T17:39:05.759Z,2.9
2023-01-12T17:44:29.532Z,2.9
2023-01-12T17:49:56.745Z,2.9
2023-01-12T17:55:04.737Z,2.9
2023-01-12T18:00:23.030Z,2.9
2023-01-12T18:05:53.621Z,2.9
2023-01-12T18:11:32.925Z,2.9
2023-01-12T18:16:57.765Z,2.9
2023-01-12T18:22:06.476Z,2.9
2023-01-12T18:27:31.524Z,2.9
2023-01-12T18:32:55.256Z,2.9
2023-01-12T18:38:21.260Z,2.9
2023-01-12T18:43:46.444Z,2.9
2023-01-12T18:54:23.111Z,2.8
2023-01-12T18:59:51.412Z,2.8
2023-01-12T19:05:21.179Z,2.7
2023-01-12T19:10:51.074Z,2.6
2023-01-12T19:16:21.049Z,2.6
2023-01-12T19:21:50.902Z,2.6
2023-01-12T19:26:50.337Z,2.5
2023-01-12T19:32:07.588Z,2.4
2023-01-12T19:37:50.661Z,2.4
2023-01-12T19:43:21.406Z,2.4
2023-01-12T19:48:52.966Z,2.4
2023-01-12T19:54:25.841Z,2.4
2023-01-12T19:59:40.606Z,2.3
2023-01-12T20:05:07.845Z,2.3
2023-01-12T20:10:20.757Z,2.3
2023-01-12T20:15:50.217Z,2.3
2023-01-12T20:21:22.607Z,2.3
2023-01-12T20:26:21.024Z,2.3
2023-01-12T20:32:07.252Z,2.3
2023-01-12T20:37:33.780Z,2.3
2023-01-12T20:43:01.339Z,2.3
2023-01-12T20:48:28.941Z,2.3
2023-01-12T20:53:53.645Z,2.3
2023-01-12T20:59:17.565Z,2.3
2023-01-12T21:04:16.418Z,2.2
2023-01-12T21:09:52.662Z,2.2
2023-01-12T21:15:03.081Z,2.2
2023-01-12T21:20:26.455Z,2.2
2023-01-12T21:25:50.005Z,2.2
2023-01-12T21:31:13.165Z,2.3
2023-01-12T21:36:36.842Z,2.3
2023-01-12T21:41:44.346Z,2.3
2023-01-12T21:52:17.259Z,2.3
2023-01-12T21:57:24.925Z,2.3
2023-01-12T22:02:32.828Z,2.3
2023-01-12T22:07:56.293Z,2.3
2023-01-12T22:13:03.350Z,2.3
2023-01-12T22:18:11.085Z,2.3
2023-01-12T22:23:33.347Z,2.3
2023-01-12T22:28:55.518Z,2.3
2023-01-12T22:34:18.534Z,2.4
2023-01-12T22:39:29.154Z,2.4
2023-01-12T22:44:51.174Z,2.3
2023-01-12T22:50:06.754Z,2.4
2023-01-12T22:55:29.884Z,2.3
2023-01-12T23:00:51.606Z,2.4
2023-01-12T23:05:59.840Z,2.4
2023-01-12T23:10:51.120Z,2.4
2023-01-12T23:16:13.773Z,2.4
2023-01-12T23:21:36.010Z,2.4
2023-01-12T23:26:58.244Z,2.4
2023-01-12T23:32:04.647Z,2.5
2023-01-12T23:37:11.087Z,2.5
2023-01-12T23:42:33.779Z,2.6
2023-01-12T23:47:54.780Z,2.6
2023-01-12T23:53:17.147Z,2.6
2023-01-12T23:58:39.338Z,2.6
